sensor_id;sensor_type;location;lat;lon;timestamp;pressure;altitude;pressure_sealevel;temperature;humidity
25350;BME280;13302;48.796;11.978;2023-01-29T00:01:29;97812.09;;;3.98;34.63
25350;BME280;13302;48.796;11.978;2023-01-29T00:04:16;97806.09;;;3.96;34.67
25350;BME280;13302;48.796;11.978;2023-01-29T00:07:03;97798.16;;;3.94;34.41
25350;BME280;13302;48.796;11.978;2023-01-29T00:09:50;97799.25;;;3.93;34.57
25350;BME280;13302;48.796;11.978;2023-01-29T00:12:37;97795.19;;;3.91;34.25
25350;BME280;13302;48.796;11.978;2023-01-29T00:15:24;97795.47;;;3.89;34.27
25350;BME280;13302;48.796;11.978;2023-01-29T00:18:11;97782.91;;;3.88;34.20
25350;BME280;13302;48.796;11.978;2023-01-29T00:20:58;97794.94;;;3.87;34.37
25350;BME280;13302;48.796;11.978;2023-01-29T00:23:45;97789.47;;;3.87;34.44
25350;BME280;13302;48.796;11.978;2023-01-29T00:26:32;97791.13;;;3.88;34.53
25350;BME280;13302;48.796;11.978;2023-01-29T00:29:19;97797.09;;;3.90;34.33
25350;BME280;13302;48.796;11.978;2023-01-29T00:32:07;97793.56;;;3.90;34.33
25350;BME280;13302;48.796;11.978;2023-01-29T00:34:56;97795.19;;;3.91;34.37
25350;BME280;13302;48.796;11.978;2023-01-29T00:37:43;97783.69;;;3.89;34.39
25350;BME280;13302;48.796;11.978;2023-01-29T00:40:30;97771.97;;;3.88;34.45
25350;BME280;13302;48.796;11.978;2023-01-29T00:43:37;97794.66;;;3.89;34.31
25350;BME280;13302;48.796;11.978;2023-01-29T00:46:42;97804.78;;;3.88;34.06
25350;BME280;13302;48.796;11.978;2023-01-29T00:49:29;97787.84;;;3.86;34.31
25350;BME280;13302;48.796;11.978;2023-01-29T00:52:17;97789.16;;;3.89;34.10
25350;BME280;13302;48.796;11.978;2023-01-29T00:55:10;97791.88;;;3.94;34.14
25350;BME280;13302;48.796;11.978;2023-01-29T00:57:57;97792.13;;;3.97;34.01
25350;BME280;13302;48.796;11.978;2023-01-29T01:00:44;97794.00;;;4.02;33.92
25350;BME280;13302;48.796;11.978;2023-01-29T01:03:31;97789.91;;;4.04;33.73
25350;BME280;13302;48.796;11.978;2023-01-29T01:06:21;97787.66;;;4.06;33.68
25350;BME280;13302;48.796;11.978;2023-01-29T01:09:09;97788.50;;;4.07;33.79
25350;BME280;13302;48.796;11.978;2023-01-29T01:12:15;97784.44;;;4.04;33.80
25350;BME280;13302;48.796;11.978;2023-01-29T01:15:02;97783.88;;;4.02;33.56
25350;BME280;13302;48.796;11.978;2023-01-29T01:17:55;97779.50;;;4.01;33.53
25350;BME280;13302;48.796;11.978;2023-01-29T01:20:42;97771.84;;;4.03;33.59
25350;BME280;13302;48.796;11.978;2023-01-29T01:23:29;97772.91;;;4.07;33.47
25350;BME280;13302;48.796;11.978;2023-01-29T01:26:17;97770.69;;;4.09;33.56
25350;BME280;13302;48.796;11.978;2023-01-29T01:29:04;97771.50;;;4.10;33.38
25350;BME280;13302;48.796;11.978;2023-01-29T01:31:54;97773.41;;;4.09;33.32
25350;BME280;13302;48.796;11.978;2023-01-29T01:34:42;97771.72;;;4.13;33.34
25350;BME280;13302;48.796;11.978;2023-01-29T01:37:32;97775.84;;;4.16;33.20
25350;BME280;13302;48.796;11.978;2023-01-29T01:40:21;97772.00;;;4.17;32.96
25350;BME280;13302;48.796;11.978;2023-01-29T01:43:09;97775.84;;;4.16;32.94
25350;BME280;13302;48.796;11.978;2023-01-29T01:45:56;97769.81;;;4.14;33.09
25350;BME280;13302;48.796;11.978;2023-01-29T01:48:46;97766.84;;;4.10;33.14
25350;BME280;13302;48.796;11.978;2023-01-29T01:51:37;97767.44;;;4.07;33.22
25350;BME280;13302;48.796;11.978;2023-01-29T01:54:27;97766.31;;;4.08;33.14
25350;BME280;13302;48.796;11.978;2023-01-29T01:57:20;97759.22;;;4.07;33.30
25350;BME280;13302;48.796;11.978;2023-01-29T02:00:13;97756.22;;;4.09;33.12
25350;BME280;13302;48.796;11.978;2023-01-29T02:03:03;97762.19;;;4.11;33.09
25350;BME280;13302;48.796;11.978;2023-01-29T02:06:09;97761.59;;;4.14;32.99
25350;BME280;13302;48.796;11.978;2023-01-29T02:09:19;97756.97;;;4.14;32.91
25350;BME280;13302;48.796;11.978;2023-01-29T02:12:21;97758.59;;;4.15;32.77
25350;BME280;13302;48.796;11.978;2023-01-29T02:15:09;97758.59;;;4.15;32.81
25350;BME280;13302;48.796;11.978;2023-01-29T02:17:57;97747.09;;;4.13;32.85
25350;BME280;13302;48.796;11.978;2023-01-29T02:21:04;97757.25;;;4.13;32.94
25350;BME280;13302;48.796;11.978;2023-01-29T02:30:16;97751.78;;;4.13;32.92
25350;BME280;13302;48.796;11.978;2023-01-29T02:39:07;97769.31;;;4.12;32.97
25350;BME280;13302;48.796;11.978;2023-01-29T02:42:23;97768.47;;;4.11;32.82
25350;BME280;13302;48.796;11.978;2023-01-29T02:45:18;97774.22;;;4.10;32.88
25350;BME280;13302;48.796;11.978;2023-01-29T02:48:10;97772.63;;;4.09;33.03
25350;BME280;13302;48.796;11.978;2023-01-29T02:51:05;97778.88;;;4.09;33.08
25350;BME280;13302;48.796;11.978;2023-01-29T02:54:05;97774.53;;;4.08;33.02
25350;BME280;13302;48.796;11.978;2023-01-29T02:56:59;97773.41;;;4.09;33.02
25350;BME280;13302;48.796;11.978;2023-01-29T02:59:57;97762.47;;;4.09;33.09
25350;BME280;13302;48.796;11.978;2023-01-29T03:03:01;97764.94;;;4.11;32.92
25350;BME280;13302;48.796;11.978;2023-01-29T03:06:12;97766.25;;;4.13;32.79
25350;BME280;13302;48.796;11.978;2023-01-29T03:09:10;97765.75;;;4.11;32.83
25350;BME280;13302;48.796;11.978;2023-01-29T03:12:09;97761.91;;;4.12;32.91
25350;BME280;13302;48.796;11.978;2023-01-29T03:15:23;97763.28;;;4.10;32.81
25350;BME280;13302;48.796;11.978;2023-01-29T03:18:36;97768.53;;;4.06;32.90
25350;BME280;13302;48.796;11.978;2023-01-29T03:21:33;97766.38;;;4.03;32.83
25350;BME280;13302;48.796;11.978;2023-01-29T03:24:44;97770.19;;;4.02;32.97
25350;BME280;13302;48.796;11.978;2023-01-29T03:27:56;97764.50;;;3.99;33.00
25350;BME280;13302;48.796;11.978;2023-01-29T03:31:07;97762.03;;;3.97;33.01
25350;BME280;13302;48.796;11.978;2023-01-29T03:34:18;97757.97;;;3.95;33.06
25350;BME280;13302;48.796;11.978;2023-01-29T03:40:14;97758.19;;;3.98;33.23
25350;BME280;13302;48.796;11.978;2023-01-29T03:43:30;97756.56;;;3.97;33.01
25350;BME280;13302;48.796;11.978;2023-01-29T03:46:25;97771.06;;;3.98;33.12
25350;BME280;13302;48.796;11.978;2023-01-29T03:49:29;97774.88;;;3.97;33.18
25350;BME280;13302;48.796;11.978;2023-01-29T03:52:34;97769.41;;;3.97;33.09
25350;BME280;13302;48.796;11.978;2023-01-29T03:58:29;97771.06;;;3.98;32.99
25350;BME280;13302;48.796;11.978;2023-01-29T04:01:25;97776.84;;;3.96;33.24
25350;BME280;13302;48.796;11.978;2023-01-29T04:04:22;97778.19;;;3.94;33.13
25350;BME280;13302;48.796;11.978;2023-01-29T04:10:08;97777.69;;;3.92;33.13
25350;BME280;13302;48.796;11.978;2023-01-29T04:13:00;97784.25;;;3.91;33.19
25350;BME280;13302;48.796;11.978;2023-01-29T04:15:53;97779.63;;;3.86;33.34
25350;BME280;13302;48.796;11.978;2023-01-29T04:19:05;97769.53;;;3.82;33.28
25350;BME280;13302;48.796;11.978;2023-01-29T04:22:06;97767.38;;;3.79;33.44
25350;BME280;13302;48.796;11.978;2023-01-29T04:24:54;97768.47;;;3.78;33.45
25350;BME280;13302;48.796;11.978;2023-01-29T04:27:57;97778.09;;;3.75;33.54
25350;BME280;13302;48.796;11.978;2023-01-29T04:30:58;97775.34;;;3.75;33.55
25350;BME280;13302;48.796;11.978;2023-01-29T04:34:20;97771.78;;;3.75;33.56
25350;BME280;13302;48.796;11.978;2023-01-29T04:37:16;97771.53;;;3.76;33.60
25350;BME280;13302;48.796;11.978;2023-01-29T04:43:10;97784.66;;;3.74;33.65
25350;BME280;13302;48.796;11.978;2023-01-29T04:52:30;97782.50;;;3.66;33.66
25350;BME280;13302;48.796;11.978;2023-01-29T04:55:28;97788.56;;;3.63;33.54
25350;BME280;13302;48.796;11.978;2023-01-29T05:01:16;97775.16;;;3.61;33.58
25350;BME280;13302;48.796;11.978;2023-01-29T05:04:08;97778.16;;;3.60;33.81
25350;BME280;13302;48.796;11.978;2023-01-29T05:07:02;97781.47;;;3.57;33.70
25350;BME280;13302;48.796;11.978;2023-01-29T05:09:50;97778.75;;;3.57;33.78
25350;BME280;13302;48.796;11.978;2023-01-29T05:12:38;97775.19;;;3.56;34.10
25350;BME280;13302;48.796;11.978;2023-01-29T05:15:34;97781.19;;;3.58;33.92
25350;BME280;13302;48.796;11.978;2023-01-29T05:18:22;97781.44;;;3.62;33.90
25350;BME280;13302;48.796;11.978;2023-01-29T05:21:09;97775.41;;;3.65;33.82
25350;BME280;13302;48.796;11.978;2023-01-29T05:24:10;97779.19;;;3.69;33.79
25350;BME280;13302;48.796;11.978;2023-01-29T05:26:58;97781.09;;;3.74;33.85
25350;BME280;13302;48.796;11.978;2023-01-29T05:30:04;97778.59;;;3.77;33.64
25350;BME280;13302;48.796;11.978;2023-01-29T05:32:51;97770.63;;;3.81;33.78
25350;BME280;13302;48.796;11.978;2023-01-29T05:35:38;97766.53;;;3.83;33.62
25350;BME280;13302;48.796;11.978;2023-01-29T05:38:25;97767.03;;;3.85;33.60
25350;BME280;13302;48.796;11.978;2023-01-29T05:41:12;97765.97;;;3.86;33.61
25350;BME280;13302;48.796;11.978;2023-01-29T05:43:59;97763.50;;;3.85;33.70
25350;BME280;13302;48.796;11.978;2023-01-29T05:46:46;97769.78;;;3.85;33.41
25350;BME280;13302;48.796;11.978;2023-01-29T05:49:33;97768.97;;;3.85;33.68
25350;BME280;13302;48.796;11.978;2023-01-29T05:52:20;97760.47;;;3.86;33.47
25350;BME280;13302;48.796;11.978;2023-01-29T05:55:08;97752.00;;;3.88;33.49
25350;BME280;13302;48.796;11.978;2023-01-29T05:57:56;97757.72;;;3.91;33.79
25350;BME280;13302;48.796;11.978;2023-01-29T06:00:43;97751.94;;;3.93;33.45
25350;BME280;13302;48.796;11.978;2023-01-29T06:03:30;97754.41;;;3.94;33.49
25350;BME280;13302;48.796;11.978;2023-01-29T06:06:17;97759.88;;;3.94;33.51
25350;BME280;13302;48.796;11.978;2023-01-29T06:09:04;97771.09;;;3.93;33.46
25350;BME280;13302;48.796;11.978;2023-01-29T06:11:51;97776.56;;;3.93;33.38
25350;BME280;13302;48.796;11.978;2023-01-29T06:14:38;97781.50;;;3.91;33.52
25350;BME280;13302;48.796;11.978;2023-01-29T06:17:24;97773.59;;;3.89;33.27
25350;BME280;13302;48.796;11.978;2023-01-29T06:20:12;97771.97;;;3.88;33.46
25350;BME280;13302;48.796;11.978;2023-01-29T06:22:59;97757.22;;;3.84;33.44
25350;BME280;13302;48.796;11.978;2023-01-29T06:25:46;97760.25;;;3.83;33.29
25350;BME280;13302;48.796;11.978;2023-01-29T06:28:33;97769.84;;;3.80;33.46
25350;BME280;13302;48.796;11.978;2023-01-29T06:31:20;97759.19;;;3.79;33.29
25350;BME280;13302;48.796;11.978;2023-01-29T06:34:24;97757.53;;;3.78;33.24
25350;BME280;13302;48.796;11.978;2023-01-29T06:37:11;97756.72;;;3.77;33.13
25350;BME280;13302;48.796;11.978;2023-01-29T06:39:58;97752.88;;;3.78;33.15
25350;BME280;13302;48.796;11.978;2023-01-29T06:42:45;97740.84;;;3.79;32.71
25350;BME280;13302;48.796;11.978;2023-01-29T06:45:32;97740.56;;;3.81;32.82
25350;BME280;13302;48.796;11.978;2023-01-29T06:48:19;97734.81;;;3.82;32.96
25350;BME280;13302;48.796;11.978;2023-01-29T06:51:08;97728.50;;;3.82;32.86
25350;BME280;13302;48.796;11.978;2023-01-29T06:53:55;97733.72;;;3.83;33.00
25350;BME280;13302;48.796;11.978;2023-01-29T06:56:42;97735.63;;;3.83;32.99
25350;BME280;13302;48.796;11.978;2023-01-29T06:59:29;97736.44;;;3.83;33.00
25350;BME280;13302;48.796;11.978;2023-01-29T07:02:16;97736.44;;;3.83;32.85
25350;BME280;13302;48.796;11.978;2023-01-29T07:05:03;97747.38;;;3.83;32.62
25350;BME280;13302;48.796;11.978;2023-01-29T07:07:51;97739.47;;;3.82;32.86
25350;BME280;13302;48.796;11.978;2023-01-29T07:10:38;97746.84;;;3.81;32.86
25350;BME280;13302;48.796;11.978;2023-01-29T07:13:24;97745.75;;;3.82;32.91
25350;BME280;13302;48.796;11.978;2023-01-29T07:16:12;97758.59;;;3.82;32.88
25350;BME280;13302;48.796;11.978;2023-01-29T07:18:59;97766.81;;;3.82;32.73
25350;BME280;13302;48.796;11.978;2023-01-29T07:21:46;97768.72;;;3.81;32.85
25350;BME280;13302;48.796;11.978;2023-01-29T07:24:32;97769.84;;;3.80;32.92
25350;BME280;13302;48.796;11.978;2023-01-29T07:27:20;97771.22;;;3.78;32.97
25350;BME280;13302;48.796;11.978;2023-01-29T07:30:07;97759.75;;;3.76;33.02
25350;BME280;13302;48.796;11.978;2023-01-29T07:32:54;97769.88;;;3.75;32.75
25350;BME280;13302;48.796;11.978;2023-01-29T07:35:42;97764.97;;;3.72;32.93
25350;BME280;13302;48.796;11.978;2023-01-29T07:38:29;97775.09;;;3.72;32.79
25350;BME280;13302;48.796;11.978;2023-01-29T07:41:16;97769.09;;;3.69;32.75
25350;BME280;13302;48.796;11.978;2023-01-29T07:44:04;97771.00;;;3.69;32.79
25350;BME280;13302;48.796;11.978;2023-01-29T07:46:51;97774.03;;;3.67;32.74
25350;BME280;13302;48.796;11.978;2023-01-29T07:49:38;97775.13;;;3.66;32.79
25350;BME280;13302;48.796;11.978;2023-01-29T07:52:25;97782.50;;;3.66;32.72
25350;BME280;13302;48.796;11.978;2023-01-29T07:55:14;97778.97;;;3.65;32.79
25350;BME280;13302;48.796;11.978;2023-01-29T07:58:02;97778.97;;;3.65;32.70
25350;BME280;13302;48.796;11.978;2023-01-29T08:00:49;97789.91;;;3.65;32.74
25350;BME280;13302;48.796;11.978;2023-01-29T08:03:36;97789.91;;;3.65;32.66
25350;BME280;13302;48.796;11.978;2023-01-29T08:06:23;97780.06;;;3.64;32.71
25350;BME280;13302;48.796;11.978;2023-01-29T08:09:11;97793.72;;;3.64;32.57
25350;BME280;13302;48.796;11.978;2023-01-29T08:11:58;97785.53;;;3.64;32.61
25350;BME280;13302;48.796;11.978;2023-01-29T08:14:45;97789.06;;;3.65;32.51
25350;BME280;13302;48.796;11.978;2023-01-29T08:17:32;97789.06;;;3.65;32.56
25350;BME280;13302;48.796;11.978;2023-01-29T08:20:20;97802.47;;;3.66;32.67
25350;BME280;13302;48.796;11.978;2023-01-29T08:23:12;97810.69;;;3.66;32.59
25350;BME280;13302;48.796;11.978;2023-01-29T08:26:01;97817.78;;;3.67;32.58
25350;BME280;13302;48.796;11.978;2023-01-29T08:28:48;97830.34;;;3.68;32.46
25350;BME280;13302;48.796;11.978;2023-01-29T08:31:36;97831.16;;;3.69;32.49
25350;BME280;13302;48.796;11.978;2023-01-29T08:34:23;97833.06;;;3.68;32.57
25350;BME280;13302;48.796;11.978;2023-01-29T08:37:10;97828.44;;;3.69;32.43
25350;BME280;13302;48.796;11.978;2023-01-29T08:39:56;97833.88;;;3.69;32.59
25350;BME280;13302;48.796;11.978;2023-01-29T08:42:44;97829.53;;;3.68;32.44
25350;BME280;13302;48.796;11.978;2023-01-29T08:45:35;97834.47;;;3.66;32.56
25350;BME280;13302;48.796;11.978;2023-01-29T08:48:23;97830.09;;;3.65;32.52
25350;BME280;13302;48.796;11.978;2023-01-29T08:51:11;97835.56;;;3.65;32.51
25350;BME280;13302;48.796;11.978;2023-01-29T08:53:58;97839.13;;;3.65;32.31
25350;BME280;13302;48.796;11.978;2023-01-29T08:56:45;97836.09;;;3.67;32.53
25350;BME280;13302;48.796;11.978;2023-01-29T08:59:32;97827.59;;;3.68;32.39
25350;BME280;13302;48.796;11.978;2023-01-29T09:02:19;97840.19;;;3.69;32.34
25350;BME280;13302;48.796;11.978;2023-01-29T09:05:07;97844.81;;;3.69;32.44
25350;BME280;13302;48.796;11.978;2023-01-29T09:07:57;97848.97;;;3.66;32.47
25350;BME280;13302;48.796;11.978;2023-01-29T09:10:45;97850.59;;;3.67;32.41
25350;BME280;13302;48.796;11.978;2023-01-29T09:13:32;97854.16;;;3.68;32.16
25350;BME280;13302;48.796;11.978;2023-01-29T09:16:19;97863.44;;;3.67;32.56
25350;BME280;13302;48.796;11.978;2023-01-29T09:19:06;97858.81;;;3.67;32.37
25350;BME280;13302;48.796;11.978;2023-01-29T09:21:54;97866.72;;;3.69;32.30
25350;BME280;13302;48.796;11.978;2023-01-29T09:24:41;97861.78;;;3.71;32.37
25350;BME280;13302;48.796;11.978;2023-01-29T09:27:28;97856.00;;;3.73;32.43
25350;BME280;13302;48.796;11.978;2023-01-29T09:30:15;97852.75;;;3.71;32.29
25350;BME280;13302;48.796;11.978;2023-01-29T09:33:06;97853.34;;;3.67;32.25
25350;BME280;13302;48.796;11.978;2023-01-29T09:35:53;97853.59;;;3.66;32.24
25350;BME280;13302;48.796;11.978;2023-01-29T09:38:40;97848.72;;;3.63;32.26
25350;BME280;13302;48.796;11.978;2023-01-29T09:45:12;97845.72;;;3.59;32.41
25350;BME280;13302;48.796;11.978;2023-01-29T09:48:02;97845.44;;;3.61;32.37
25350;BME280;13302;48.796;11.978;2023-01-29T09:50:52;97849.81;;;3.62;32.29
25350;BME280;13302;48.796;11.978;2023-01-29T09:53:46;97846.25;;;3.61;32.13
25350;BME280;13302;48.796;11.978;2023-01-29T09:56:40;97838.88;;;3.62;32.13
25350;BME280;13302;48.796;11.978;2023-01-29T09:59:29;97838.88;;;3.62;32.47
25350;BME280;13302;48.796;11.978;2023-01-29T10:02:47;97841.59;;;3.62;32.27
25350;BME280;13302;48.796;11.978;2023-01-29T10:09:11;97838.59;;;3.63;32.26
25350;BME280;13302;48.796;11.978;2023-01-29T10:15:27;97826.25;;;3.66;32.24
25350;BME280;13302;48.796;11.978;2023-01-29T10:18:45;97827.59;;;3.68;32.35
25350;BME280;13302;48.796;11.978;2023-01-29T10:24:59;97812.84;;;3.69;32.06
25350;BME280;13302;48.796;11.978;2023-01-29T10:27:51;97809.00;;;3.71;32.12
25350;BME280;13302;48.796;11.978;2023-01-29T10:30:45;97802.44;;;3.72;32.21
25350;BME280;13302;48.796;11.978;2023-01-29T10:33:38;97799.97;;;3.75;32.29
25350;BME280;13302;48.796;11.978;2023-01-29T10:36:47;97797.19;;;3.80;32.03
25350;BME280;13302;48.796;11.978;2023-01-29T10:39:34;97793.56;;;3.85;31.96
25350;BME280;13302;48.796;11.978;2023-01-29T10:42:37;97790.06;;;3.84;32.08
25350;BME280;13302;48.796;11.978;2023-01-29T10:51:32;97780.44;;;3.87;31.78
25350;BME280;13302;48.796;11.978;2023-01-29T10:57:50;97781.25;;;3.92;31.96
25350;BME280;13302;48.796;11.978;2023-01-29T11:00:39;97785.88;;;3.92;31.82
25350;BME280;13302;48.796;11.978;2023-01-29T11:03:29;97778.78;;;3.91;31.93
25350;BME280;13302;48.796;11.978;2023-01-29T11:06:23;97769.25;;;3.88;31.83
25350;BME280;13302;48.796;11.978;2023-01-29T11:09:29;97767.00;;;3.90;31.82
25350;BME280;13302;48.796;11.978;2023-01-29T11:12:26;97752.25;;;3.91;31.88
25350;BME280;13302;48.796;11.978;2023-01-29T11:15:19;97757.41;;;3.93;31.62
25350;BME280;13302;48.796;11.978;2023-01-29T11:18:13;97745.69;;;3.92;31.73
25350;BME280;13302;48.796;11.978;2023-01-29T11:21:03;97739.91;;;3.94;31.64
25350;BME280;13302;48.796;11.978;2023-01-29T11:24:04;97729.78;;;3.94;31.67
25350;BME280;13302;48.796;11.978;2023-01-29T11:27:01;97732.25;;;3.96;31.77
25350;BME280;13302;48.796;11.978;2023-01-29T11:29:59;97733.56;;;3.98;31.52
25350;BME280;13302;48.796;11.978;2023-01-29T11:32:51;97725.09;;;4.00;31.68
25350;BME280;13302;48.796;11.978;2023-01-29T11:35:42;97727.25;;;4.03;31.58
25350;BME280;13302;48.796;11.978;2023-01-29T11:38:29;97731.31;;;4.05;31.49
25350;BME280;13302;48.796;11.978;2023-01-29T11:41:16;97722.31;;;4.05;31.51
25350;BME280;13302;48.796;11.978;2023-01-29T11:47:28;97726.72;;;4.01;31.66
25350;BME280;13302;48.796;11.978;2023-01-29T11:50:20;97725.91;;;4.00;31.49
25350;BME280;13302;48.796;11.978;2023-01-29T11:53:22;97726.44;;;4.02;31.52
25350;BME280;13302;48.796;11.978;2023-01-29T11:56:41;97728.56;;;4.05;31.77
25350;BME280;13302;48.796;11.978;2023-01-29T11:59:39;97725.28;;;4.08;31.64
25350;BME280;13302;48.796;11.978;2023-01-29T12:02:36;97719.50;;;4.10;31.53
25350;BME280;13302;48.796;11.978;2023-01-29T12:05:25;97714.56;;;4.12;31.51
25350;BME280;13302;48.796;11.978;2023-01-29T12:08:16;97711.84;;;4.12;31.42
25350;BME280;13302;48.796;11.978;2023-01-29T12:11:17;97700.91;;;4.12;31.55
25350;BME280;13302;48.796;11.978;2023-01-29T12:14:30;97690.22;;;4.10;31.47
25350;BME280;13302;48.796;11.978;2023-01-29T12:17:21;97684.75;;;4.10;31.46
25350;BME280;13302;48.796;11.978;2023-01-29T12:20:19;97684.47;;;4.12;31.58
25350;BME280;13302;48.796;11.978;2023-01-29T12:36:13;97637.56;;;4.24;31.30
25350;BME280;13302;48.796;11.978;2023-01-29T12:38:59;97632.91;;;4.24;31.08
25350;BME280;13302;48.796;11.978;2023-01-29T12:42:02;97640.56;;;4.22;31.32
25350;BME280;13302;48.796;11.978;2023-01-29T12:44:57;97629.72;;;4.17;31.57
25350;BME280;13302;48.796;11.978;2023-01-29T12:47:49;97630.81;;;4.16;31.31
25350;BME280;13302;48.796;11.978;2023-01-29T12:50:37;97632.44;;;4.17;31.43
25350;BME280;13302;48.796;11.978;2023-01-29T12:53:30;97641.44;;;4.18;31.58
25350;BME280;13302;48.796;11.978;2023-01-29T12:56:25;97635.69;;;4.19;31.36
25350;BME280;13302;48.796;11.978;2023-01-29T12:59:16;97649.31;;;4.24;31.54
25350;BME280;13302;48.796;11.978;2023-01-29T13:02:18;97641.94;;;4.25;31.38
25350;BME280;13302;48.796;11.978;2023-01-29T13:05:30;97637.28;;;4.25;31.28
25350;BME280;13302;48.796;11.978;2023-01-29T13:08:25;97635.88;;;4.28;31.30
25350;BME280;13302;48.796;11.978;2023-01-29T13:11:21;97639.94;;;4.30;31.26
25350;BME280;13302;48.796;11.978;2023-01-29T13:14:19;97629.81;;;4.31;31.23
25350;BME280;13302;48.796;11.978;2023-01-29T13:17:13;97633.63;;;4.30;31.23
25350;BME280;13302;48.796;11.978;2023-01-29T13:20:16;97626.56;;;4.29;31.20
25350;BME280;13302;48.796;11.978;2023-01-29T13:23:32;97614.78;;;4.28;31.18
25350;BME280;13302;48.796;11.978;2023-01-29T13:26:20;97615.00;;;4.32;31.00
25350;BME280;13302;48.796;11.978;2023-01-29T13:32:06;97607.63;;;4.32;31.23
25350;BME280;13302;48.796;11.978;2023-01-29T13:34:59;97606.25;;;4.30;31.23
25350;BME280;13302;48.796;11.978;2023-01-29T13:37:52;97600.50;;;4.31;31.12
25350;BME280;13302;48.796;11.978;2023-01-29T13:40:48;97603.25;;;4.31;31.18
25350;BME280;13302;48.796;11.978;2023-01-29T13:43:39;97610.88;;;4.34;31.04
25350;BME280;13302;48.796;11.978;2023-01-29T13:46:28;97598.00;;;4.35;30.97
25350;BME280;13302;48.796;11.978;2023-01-29T13:49:26;97601.28;;;4.37;30.93
25350;BME280;13302;48.796;11.978;2023-01-29T13:55:26;97603.19;;;4.36;30.86
25350;BME280;13302;48.796;11.978;2023-01-29T14:04:34;97617.09;;;4.40;30.97
25350;BME280;13302;48.796;11.978;2023-01-29T14:10:32;97628.59;;;4.42;30.92
25350;BME280;13302;48.796;11.978;2023-01-29T14:19:01;97616.19;;;4.49;30.77
25350;BME280;13302;48.796;11.978;2023-01-29T14:21:49;97613.66;;;4.53;30.66
25350;BME280;13302;48.796;11.978;2023-01-29T14:24:41;97606.53;;;4.52;30.50
25350;BME280;13302;48.796;11.978;2023-01-29T14:27:29;97589.53;;;4.55;30.72
25350;BME280;13302;48.796;11.978;2023-01-29T14:30:18;97592.47;;;4.58;30.59
25350;BME280;13302;48.796;11.978;2023-01-29T14:33:21;97591.38;;;4.59;30.58
25350;BME280;13302;48.796;11.978;2023-01-29T14:36:11;97583.16;;;4.59;30.71
25350;BME280;13302;48.796;11.978;2023-01-29T14:38:59;97584.81;;;4.60;30.65
25350;BME280;13302;48.796;11.978;2023-01-29T14:41:46;97585.09;;;4.59;30.80
25350;BME280;13302;48.796;11.978;2023-01-29T14:59:19;97589.03;;;4.53;30.72
25350;BME280;13302;48.796;11.978;2023-01-29T15:02:23;97585.19;;;4.54;30.81
25350;BME280;13302;48.796;11.978;2023-01-29T15:05:18;97584.38;;;4.53;30.85
25350;BME280;13302;48.796;11.978;2023-01-29T15:11:02;97575.59;;;4.51;30.82
25350;BME280;13302;48.796;11.978;2023-01-29T15:14:25;97575.38;;;4.48;30.52
25350;BME280;13302;48.796;11.978;2023-01-29T15:17:28;97578.41;;;4.46;30.78
25350;BME280;13302;48.796;11.978;2023-01-29T15:20:37;97576.81;;;4.45;30.92
25350;BME280;13302;48.796;11.978;2023-01-29T15:26:20;97580.34;;;4.46;30.45
25350;BME280;13302;48.796;11.978;2023-01-29T15:29:22;97582.28;;;4.45;30.85
25350;BME280;13302;48.796;11.978;2023-01-29T15:32:25;97584.19;;;4.45;30.89
25350;BME280;13302;48.796;11.978;2023-01-29T15:35:29;97580.63;;;4.44;30.74
25350;BME280;13302;48.796;11.978;2023-01-29T15:38:17;97582.56;;;4.44;30.78
25350;BME280;13302;48.796;11.978;2023-01-29T15:41:21;97569.47;;;4.41;30.79
25350;BME280;13302;48.796;11.978;2023-01-29T15:44:21;97566.19;;;4.39;30.72
25350;BME280;13302;48.796;11.978;2023-01-29T15:47:08;97567.31;;;4.38;30.81
25350;BME280;13302;48.796;11.978;2023-01-29T15:49:55;97572.81;;;4.38;30.84
25350;BME280;13302;48.796;11.978;2023-01-29T15:52:48;97559.13;;;4.38;30.79
25350;BME280;13302;48.796;11.978;2023-01-29T15:55:36;97572.81;;;4.38;30.75
25350;BME280;13302;48.796;11.978;2023-01-29T15:58:28;97571.16;;;4.37;30.81
25350;BME280;13302;48.796;11.978;2023-01-29T16:01:16;97577.47;;;4.37;30.61
25350;BME280;13302;48.796;11.978;2023-01-29T16:04:04;97573.09;;;4.36;31.02
25350;BME280;13302;48.796;11.978;2023-01-29T16:06:52;97568.72;;;4.35;30.76
25350;BME280;13302;48.796;11.978;2023-01-29T16:09:41;97574.78;;;4.32;30.89
25350;BME280;13302;48.796;11.978;2023-01-29T16:12:30;97579.44;;;4.32;30.87
25350;BME280;13302;48.796;11.978;2023-01-29T16:15:54;97575.66;;;4.28;30.88
25350;BME280;13302;48.796;11.978;2023-01-29T16:18:43;97573.72;;;4.28;30.85
25350;BME280;13302;48.796;11.978;2023-01-29T16:21:45;97581.63;;;4.30;30.88
25350;BME280;13302;48.796;11.978;2023-01-29T16:24:37;97586.31;;;4.29;30.77
25350;BME280;13302;48.796;11.978;2023-01-29T16:27:24;97578.09;;;4.29;30.87
25350;BME280;13302;48.796;11.978;2023-01-29T16:30:15;97581.13;;;4.28;30.99
25350;BME280;13302;48.796;11.978;2023-01-29T16:33:04;97583.03;;;4.27;30.84
25350;BME280;13302;48.796;11.978;2023-01-29T16:35:52;97577.28;;;4.29;30.93
25350;BME280;13302;48.796;11.978;2023-01-29T16:38:39;97576.16;;;4.30;30.84
25350;BME280;13302;48.796;11.978;2023-01-29T16:41:36;97572.63;;;4.29;31.02
25350;BME280;13302;48.796;11.978;2023-01-29T16:47:27;97577.28;;;4.29;30.93
25350;BME280;13302;48.796;11.978;2023-01-29T16:50:35;97577.56;;;4.27;31.04
25350;BME280;13302;48.796;11.978;2023-01-29T16:54:05;97567.44;;;4.28;30.93
25350;BME280;13302;48.796;11.978;2023-01-29T16:56:57;97577.56;;;4.27;31.02
25350;BME280;13302;48.796;11.978;2023-01-29T16:59:46;97576.97;;;4.30;30.82
25350;BME280;13302;48.796;11.978;2023-01-29T17:02:37;97574.25;;;4.30;30.94
25350;BME280;13302;48.796;11.978;2023-01-29T17:05:28;97574.84;;;4.27;30.85
25350;BME280;13302;48.796;11.978;2023-01-29T17:08:22;97580.59;;;4.26;30.98
25350;BME280;13302;48.796;11.978;2023-01-29T17:11:12;97577.34;;;4.24;31.01
25350;BME280;13302;48.796;11.978;2023-01-29T17:14:16;97577.94;;;4.21;30.93